Time;durP1;ratioP1;P1;durP2;ratioP2;P2;SDS_P1;SDS_P2;PMS_P1;PMS_P2;Temp;Humidity;BMP_temperature;BMP_pressure;BME280_temperature;BME280_humidity;BME280_pressure;Samples;Min_cycle;Max_cycle;Signal;HPM_P1;HPM_P2
2022/12/22 03:26:44;;;;;;;283.02;26.58;;;;;;;10.56;79.31;98537.13;5011302;28;20100;-84
2022/12/22 03:29:11;;;;;;;369.30;30.67;;;;;;;10.57;79.42;98540.59;4994801;28;20054;-83
2022/12/22 03:31:38;;;;;;;374.75;28.52;;;;;;;10.58;79.25;98526.50;5012131;28;20145;-83
2022/12/22 03:34:04;;;;;;;452.83;30.70;;;;;;;10.59;79.28;98528.16;5012239;28;20049;-81
2022/12/22 03:36:31;;;;;;;376.85;28.58;;;;;;;10.59;79.13;98521.13;5011846;28;20399;-83
2022/12/22 03:38:57;;;;;;;409.73;30.00;;;;;;;10.59;79.31;98510.59;5012252;28;20447;-83
2022/12/22 03:46:54;;;;;;;448.88;31.92;;;;;;;10.60;78.90;98511.41;5011815;28;20061;-83
2022/12/22 03:49:21;;;;;;;313.65;26.63;;;;;;;10.58;79.44;98508.88;5011794;28;20082;-82
2022/12/22 03:51:49;;;;;;;372.90;27.98;;;;;;;10.57;79.04;98501.97;5011982;28;20054;-83
2022/12/22 03:54:19;;;;;;;416.92;32.50;;;;;;;10.55;79.10;98509.97;5011910;28;20505;-82
2022/12/22 03:56:46;;;;;;;355.58;28.33;;;;;;;10.56;79.05;98513.44;5012073;28;20056;-84
2022/12/22 03:59:13;;;;;;;420.42;30.08;;;;;;;10.55;79.35;98517.84;5011710;28;20574;-83
2022/12/22 04:02:01;;;;;;;280.70;27.83;;;;;;;10.53;79.17;98511.88;4994520;28;20060;-84
2022/12/22 04:04:28;;;;;;;210.00;22.98;;;;;;;10.55;79.27;98502.06;5010529;28;20065;-81
2022/12/22 04:06:55;;;;;;;316.08;26.77;;;;;;;10.56;79.44;98505.56;5011359;28;20045;-83
2022/12/22 04:09:21;;;;;;;256.50;24.48;;;;;;;10.57;79.38;98504.59;5009791;28;20077;-84
2022/12/22 04:14:33;;;;;;;290.27;24.77;;;;;;;10.61;79.46;98494.69;5019528;28;20049;-83
2022/12/22 04:17:02;;;;;;;291.67;26.83;;;;;;;10.60;79.33;98487.72;5031167;28;20122;-84
2022/12/22 04:19:29;;;;;;;361.17;27.60;;;;;;;10.62;79.38;98485.81;5030729;28;20518;-82
2022/12/22 04:21:56;;;;;;;180.82;21.70;;;;;;;10.63;79.33;98483.06;5031022;28;20041;-84
2022/12/22 04:24:23;;;;;;;128.95;21.05;;;;;;;10.63;79.33;98483.06;5030979;28;20520;-83
2022/12/22 04:26:49;;;;;;;140.75;21.20;;;;;;;10.65;79.31;98480.34;5019833;28;20060;-83
2022/12/22 04:29:16;;;;;;;51.10;20.02;;;;;;;10.65;79.41;98480.34;5011368;28;20054;-84
2022/12/22 04:31:43;;;;;;;29.35;19.40;;;;;;;10.66;79.42;98482.81;4993627;28;20549;-84
2022/12/22 04:34:09;;;;;;;24.25;19.00;;;;;;;10.68;79.53;98480.91;5011336;28;20054;-82
2022/12/22 04:36:36;;;;;;;27.08;18.85;;;;;;;10.69;79.29;98481.72;5011080;28;20049;-85
2022/12/22 04:39:03;;;;;;;34.10;19.38;;;;;;;10.69;79.44;98479.09;5011034;28;20167;-83
2022/12/22 04:41:29;;;;;;;26.48;18.30;;;;;;;10.70;79.43;98470.28;5011055;28;20050;-84
2022/12/22 04:43:56;;;;;;;28.02;17.98;;;;;;;10.70;79.32;98462.38;5010895;28;20068;-82
2022/12/22 04:46:22;;;;;;;22.27;17.40;;;;;;;10.71;79.42;98455.31;5011140;28;20057;-84
2022/12/22 04:48:49;;;;;;;21.67;17.35;;;;;;;10.72;79.54;98455.19;5010734;28;20403;-84
2022/12/22 04:51:24;;;;;;;24.42;15.68;;;;;;;10.75;79.65;98440.94;5011167;28;20173;-84
2022/12/22 04:53:51;;;;;;;21.38;16.63;;;;;;;10.76;79.51;98432.94;5011119;28;20061;-83
2022/12/22 04:56:18;;;;;;;24.48;15.43;;;;;;;10.77;79.81;98434.59;5010886;28;20053;-83
2022/12/22 04:58:44;;;;;;;19.63;16.95;;;;;;;10.80;79.58;98437.00;5011035;28;20069;-84
2022/12/22 05:01:14;;;;;;;20.58;15.35;;;;;;;10.81;79.40;98438.66;5011049;28;20100;-83
2022/12/22 05:03:41;;;;;;;22.45;15.50;;;;;;;10.85;79.58;98433.16;4993697;28;20088;-83
2022/12/22 05:06:08;;;;;;;30.60;16.00;;;;;;;10.88;79.47;98440.81;5011052;28;20105;-84
2022/12/22 05:08:35;;;;;;;125.03;19.92;;;;;;;10.91;79.56;98432.66;5010896;28;20045;-84
2022/12/22 05:11:01;;;;;;;49.65;15.75;;;;;;;10.93;79.58;98430.75;5010726;28;20142;-84
2022/12/22 05:13:32;;;;;;;122.90;19.02;;;;;;;10.96;79.39;98435.78;5010942;28;20490;-83
2022/12/22 05:16:11;;;;;;;46.40;15.77;;;;;;;10.96;78.82;98433.16;5011222;28;20057;-83
2022/12/22 05:18:38;;;;;;;161.60;22.33;;;;;;;11.03;79.45;98431.69;5010824;28;20609;-83
2022/12/22 05:21:17;;;;;;;165.50;18.63;;;;;;;11.08;78.99;98433.97;5010629;28;20088;-83
2022/12/22 05:23:44;;;;;;;149.55;18.00;;;;;;;11.10;79.20;98425.94;5011052;28;20099;-83
2022/12/22 05:26:17;;;;;;;140.95;17.48;;;;;;;11.10;78.68;98418.03;5010730;28;20053;-83
2022/12/22 05:29:07;;;;;;;211.50;18.52;;;;;;;11.16;79.04;98412.25;4994042;28;20508;-84
2022/12/22 05:31:38;;;;;;;176.40;14.55;;;;;;;11.18;78.90;98407.72;5010606;28;20050;-83
2022/12/22 05:34:13;;;;;;;347.73;24.60;;;;;;;11.21;78.84;98408.28;5011238;28;20058;-84
2022/12/22 05:36:40;;;;;;;211.40;17.45;;;;;;;11.23;78.77;98408.19;5010656;28;20124;-83
2022/12/22 05:39:06;;;;;;;106.00;11.90;;;;;;;11.24;78.66;98412.47;5010796;28;20065;-84
2022/12/22 05:41:45;;;;;;;162.35;14.25;;;;;;;11.21;77.96;98403.03;5010556;28;20104;-83
2022/12/22 05:44:11;;;;;;;246.32;16.30;;;;;;;11.28;78.67;98407.78;4993297;28;20136;-83
2022/12/22 05:46:38;;;;;;;464.13;25.17;;;;;;;11.27;78.49;98406.97;5010539;28;20390;-83
2022/12/22 05:49:04;;;;;;;267.83;17.48;;;;;;;11.27;78.56;98406.97;5010721;28;20070;-83
2022/12/22 05:51:31;;;;;;;365.70;20.80;;;;;;;11.27;78.40;98414.00;4996140;28;20052;-83
2022/12/22 05:53:57;;;;;;;361.63;21.10;;;;;;;11.28;78.47;98418.31;5014123;28;20058;-82
2022/12/22 05:56:24;;;;;;;206.02;15.73;;;;;;;11.28;78.32;98418.31;5013970;28;20077;-83
2022/12/22 05:58:50;;;;;;;190.80;15.13;;;;;;;11.27;78.39;98428.03;5013872;28;20146;-84
2022/12/22 06:01:17;;;;;;;147.07;14.23;;;;;;;11.27;78.40;98428.03;5013986;28;20471;-84
2022/12/22 06:03:43;;;;;;;164.40;13.85;;;;;;;11.28;78.58;98432.34;5014145;28;20046;-84
2022/12/22 06:06:10;;;;;;;296.83;18.55;;;;;;;11.28;78.76;98424.44;5013841;28;20054;-82
2022/12/22 06:08:37;;;;;;;324.13;18.67;;;;;;;11.30;78.72;98426.94;5013951;28;20062;-84
2022/12/22 06:11:03;;;;;;;263.98;18.20;;;;;;;11.31;78.56;98426.81;5013800;28;20050;-83
2022/12/22 06:13:30;;;;;;;231.30;17.85;;;;;;;11.33;78.56;98424.88;5013744;28;20050;-84
2022/12/22 06:15:56;;;;;;;59.25;11.75;;;;;;;11.33;78.55;98427.53;5013466;28;20132;-83
2022/12/22 06:18:23;;;;;;;269.80;17.17;;;;;;;11.33;78.66;98419.63;5013552;28;20113;-85
2022/12/22 06:20:51;;;;;;;269.63;18.30;;;;;;;11.34;78.48;98425.75;5013631;28;20128;-84
2022/12/22 06:23:18;;;;;;;302.85;17.48;;;;;;;11.34;78.35;98426.56;5013368;28;20394;-83
2022/12/22 06:25:59;;;;;;;342.95;20.15;;;;;;;11.29;77.82;98418.19;5013188;28;20041;-84
2022/12/22 06:28:27;;;;;;;256.42;17.52;;;;;;;11.32;78.32;98417.97;5013575;28;20092;-84
2022/12/22 06:30:54;;;;;;;274.83;15.30;;;;;;;11.31;78.30;98428.63;5013665;28;20104;-84
2022/12/22 06:33:21;;;;;;;268.83;15.82;;;;;;;11.29;78.38;98428.72;5013558;28;20041;-84
2022/12/22 06:35:48;;;;;;;255.20;16.30;;;;;;;11.27;78.24;98427.19;5013349;28;20435;-82
2022/12/22 06:38:23;;;;;;;239.60;15.25;;;;;;;11.26;78.35;98434.28;5013262;28;20066;-84
2022/12/22 06:40:49;;;;;;;256.52;16.27;;;;;;;11.23;78.40;98428.41;5013576;28;20045;-83
2022/12/22 06:43:16;;;;;;;219.35;17.75;;;;;;;11.23;78.66;98429.25;5013111;28;20487;-82
2022/12/22 06:45:43;;;;;;;174.70;13.52;;;;;;;11.21;78.58;98425.88;5013558;28;20058;-84
2022/12/22 06:48:11;;;;;;;219.63;16.17;;;;;;;11.21;78.78;98425.88;4995793;28;20052;-84
2022/12/22 06:50:38;;;;;;;177.60;14.27;;;;;;;11.21;78.75;98429.38;4995967;28;20236;-84
2022/12/22 06:53:06;;;;;;;251.73;15.88;;;;;;;11.21;78.95;98432.00;5013088;28;20475;-84
2022/12/22 06:55:33;;;;;;;201.18;13.90;;;;;;;11.22;78.94;98430.22;5013120;28;20050;-82
2022/12/22 06:57:59;;;;;;;215.60;15.30;;;;;;;11.23;78.86;98434.50;5012667;28;20133;-85
2022/12/22 07:00:26;;;;;;;274.17;16.23;;;;;;;11.24;78.78;98438.81;5012773;28;20076;-84
2022/12/22 07:02:52;;;;;;;242.38;18.55;;;;;;;11.24;78.74;98444.09;5011863;28;20061;-82
2022/12/22 07:05:19;;;;;;;300.92;17.52;;;;;;;11.25;78.84;98442.28;5011907;28;20046;-83
2022/12/22 07:07:46;;;;;;;207.65;16.25;;;;;;;11.25;78.82;98456.28;5011894;28;20081;-83
2022/12/22 07:10:12;;;;;;;355.73;18.67;;;;;;;11.26;78.68;98447.44;5012709;28;20100;-84
2022/12/22 07:12:40;;;;;;;309.77;16.70;;;;;;;11.26;78.45;98455.34;5012102;28;20057;-85
2022/12/22 07:15:08;;;;;;;253.00;15.50;;;;;;;11.26;78.56;98459.75;5012412;28;20054;-83
2022/12/22 07:17:34;;;;;;;293.27;17.27;;;;;;;11.27;78.88;98464.06;5012503;28;20061;-81
2022/12/22 07:20:01;;;;;;;138.93;11.00;;;;;;;11.27;78.56;98466.69;5012108;28;20133;-82
2022/12/22 07:22:27;;;;;;;233.27;15.07;;;;;;;11.29;78.65;98475.34;5012217;28;20288;-83
2022/12/22 07:24:56;;;;;;;88.82;10.13;;;;;;;11.28;78.75;98477.13;4994821;28;20089;-82
2022/12/22 07:27:23;;;;;;;74.43;10.80;;;;;;;11.30;78.83;98483.13;5012141;28;20052;-82
2022/12/22 07:29:49;;;;;;;82.55;11.48;;;;;;;11.31;78.85;98486.56;5012430;28;20078;-83
2022/12/22 07:32:16;;;;;;;108.03;11.68;;;;;;;11.32;78.98;98488.22;5012378;28;20402;-83
2022/12/22 07:34:43;;;;;;;192.02;14.70;;;;;;;11.33;78.75;98480.22;5011983;28;20129;-81
2022/12/22 07:39:41;;;;;;;62.33;9.45;;;;;;;11.36;78.73;98473.03;5042500;23;20053;-80
2022/12/22 07:44:55;;;;;;;130.32;12.48;;;;;;;11.36;78.41;98481.75;5011143;28;20060;-79
2022/12/22 07:47:22;;;;;;;97.18;10.52;;;;;;;11.34;78.50;98481.88;5010019;28;20077;-80
2022/12/22 07:52:33;;;;;;;69.45;11.55;;;;;;;11.35;78.56;98493.25;5011491;28;20054;-80
2022/12/22 07:55:00;;;;;;;110.50;11.57;;;;;;;11.36;78.68;98494.13;5011146;28;20054;-80
2022/12/22 07:57:26;;;;;;;109.95;13.15;;;;;;;11.37;78.72;98501.06;5011070;28;20062;-80
2022/12/22 07:59:53;;;;;;;106.65;12.43;;;;;;;11.36;78.69;98500.19;5011154;28;20049;-80
2022/12/22 08:02:19;;;;;;;100.30;11.82;;;;;;;11.38;78.79;98502.72;4993471;28;20539;-80
2022/12/22 08:04:46;;;;;;;117.18;14.02;;;;;;;11.37;78.73;98498.41;4993498;28;20142;-80
2022/12/22 08:07:12;;;;;;;69.60;10.35;;;;;;;11.37;78.81;98499.25;5010857;28;20558;-80
2022/12/22 08:09:39;;;;;;;76.88;10.57;;;;;;;11.39;78.76;98504.38;4993478;28;20058;-80
2022/12/22 08:12:05;;;;;;;69.50;10.57;;;;;;;11.40;78.65;98506.91;5011293;28;20061;-80
2022/12/22 08:14:32;;;;;;;85.70;10.95;;;;;;;11.41;78.84;98507.75;5010688;28;20456;-80
2022/12/22 08:16:58;;;;;;;152.88;11.95;;;;;;;11.41;78.73;98508.59;5010720;28;20062;-80
2022/12/22 08:19:24;;;;;;;146.00;12.48;;;;;;;11.44;78.62;98507.50;4993407;28;20054;-80
2022/12/22 08:21:51;;;;;;;64.15;9.50;;;;;;;11.44;78.58;98515.41;4993382;28;20061;-80
2022/12/22 08:24:19;;;;;;;87.00;11.60;;;;;;;11.46;78.58;98521.38;5011104;28;20064;-79
2022/12/22 08:26:52;;;;;;;87.85;12.00;;;;;;;11.45;78.26;98517.09;5010359;28;20056;-80
2022/12/22 08:29:53;;;;;;;73.60;9.77;;;;;;;11.44;78.07;98508.31;5010470;28;20109;-80
2022/12/22 08:32:20;;;;;;;164.10;14.93;;;;;;;11.46;78.29;98516.97;4977771;28;20500;-79
2022/12/22 08:34:49;;;;;;;94.68;12.27;;;;;;;11.44;78.07;98523.31;5010813;28;20058;-79
2022/12/22 08:37:19;;;;;;;51.28;10.38;;;;;;;11.45;78.25;98519.72;5010509;28;20053;-79
2022/12/22 08:39:49;;;;;;;27.88;9.93;;;;;;;11.44;78.27;98516.22;5010758;28;20054;-79
2022/12/22 08:42:19;;;;;;;15.55;8.95;;;;;;;11.43;78.23;98514.56;5011121;28;20061;-79
2022/12/22 08:44:50;;;;;;;13.65;8.70;;;;;;;11.45;78.50;98520.53;5010914;28;20054;-79
2022/12/22 08:47:18;;;;;;;13.35;9.02;;;;;;;11.46;78.52;98516.09;5010779;28;20078;-79
2022/12/22 08:49:44;;;;;;;15.35;8.95;;;;;;;11.47;78.43;98523.03;5010910;28;20057;-79
2022/12/22 08:52:11;;;;;;;19.88;9.80;;;;;;;11.48;78.64;98519.47;5010860;28;20097;-78
2022/12/22 08:54:44;;;;;;;17.80;9.27;;;;;;;11.49;78.44;98525.56;4994620;28;20080;-79
2022/12/22 08:57:10;;;;;;;21.38;9.77;;;;;;;11.49;78.46;98529.03;4993124;28;20057;-79
2022/12/22 08:59:37;;;;;;;27.23;9.55;;;;;;;11.51;78.57;98534.19;5010495;28;20153;-79
2022/12/22 09:02:04;;;;;;;35.03;10.07;;;;;;;11.52;78.53;98541.97;5010577;28;20116;-79
2022/12/22 09:04:32;;;;;;;25.02;11.13;;;;;;;11.54;78.98;98539.19;4976894;28;20553;-79
2022/12/22 09:07:01;;;;;;;52.70;12.77;;;;;;;11.56;78.94;98542.56;5008597;28;20121;-80
2022/12/22 09:09:31;;;;;;;29.42;11.45;;;;;;;11.57;78.61;98544.22;5009051;28;20100;-79
2022/12/22 09:11:59;;;;;;;49.00;13.23;;;;;;;11.60;78.83;98555.34;5008935;28;20518;-80
2022/12/22 09:14:27;;;;;;;71.90;14.18;;;;;;;11.62;78.59;98560.50;5009018;28;20527;-79
2022/12/22 09:16:53;;;;;;;60.97;14.13;;;;;;;11.64;78.83;98570.94;4991046;28;20058;-79
2022/12/22 09:19:20;;;;;;;41.83;13.63;;;;;;;11.63;78.48;98570.09;5008655;28;20140;-79
2022/12/22 09:21:46;;;;;;;36.47;13.70;;;;;;;11.65;78.36;98577.88;5010046;28;20061;-79
2022/12/22 09:24:13;;;;;;;98.15;16.20;;;;;;;11.65;78.24;98581.34;5010387;28;20073;-79
2022/12/22 09:26:39;;;;;;;51.05;14.93;;;;;;;11.65;78.12;98583.97;4995828;28;20492;-79
2022/12/22 09:29:06;;;;;;;30.20;13.98;;;;;;;11.65;77.98;98585.78;5013936;28;20053;-80
2022/12/22 09:31:32;;;;;;;20.30;13.35;;;;;;;11.63;77.92;98587.72;5014220;28;20107;-79
2022/12/22 09:33:59;;;;;;;18.83;13.55;;;;;;;11.61;77.96;98595.75;5014048;28;20128;-79
2022/12/22 09:36:29;;;;;;;21.77;13.70;;;;;;;11.59;77.88;98595.03;5013686;28;20065;-79
2022/12/22 09:38:55;;;;;;;21.83;13.70;;;;;;;11.58;77.96;98595.97;5013536;28;20054;-79
2022/12/22 09:41:46;;;;;;;21.25;13.85;;;;;;;11.53;77.17;98595.50;5013835;28;20088;-79
2022/12/22 09:44:24;;;;;;;21.73;13.70;;;;;;;11.54;77.57;98597.19;5013958;28;20579;-80
2022/12/22 09:46:54;;;;;;;20.95;14.48;;;;;;;11.54;78.14;98603.28;5013620;28;20082;-79
2022/12/22 09:49:21;;;;;;;22.60;12.88;;;;;;;11.55;78.53;98612.06;5013719;28;20045;-79
2022/12/22 09:51:52;;;;;;;18.13;13.20;;;;;;;11.55;78.65;98604.97;5013488;28;20539;-79
2022/12/22 09:54:20;;;;;;;19.45;13.02;;;;;;;11.57;78.94;98613.59;5013634;28;20057;-79
2022/12/22 09:56:46;;;;;;;17.27;12.35;;;;;;;11.59;79.07;98622.22;5013099;28;20504;-79
2022/12/22 09:59:18;;;;;;;25.65;13.70;;;;;;;11.62;78.45;98626.41;5013248;28;20066;-79
2022/12/22 10:02:04;;;;;;;18.97;13.87;;;;;;;11.64;77.96;98623.66;5013331;28;20492;-79
2022/12/22 10:04:49;;;;;;;21.75;13.65;;;;;;;11.68;77.88;98633.84;5013523;28;20057;-79
2022/12/22 10:07:35;;;;;;;21.55;14.00;;;;;;;11.72;78.04;98630.00;5012941;28;20053;-79
2022/12/22 10:10:23;;;;;;;18.42;13.88;;;;;;;11.76;78.07;98629.72;5013472;28;20056;-79
2022/12/22 10:12:53;;;;;;;20.58;14.57;;;;;;;11.82;79.15;98630.06;5013158;28;20060;-80
2022/12/22 10:15:19;;;;;;;24.35;15.25;;;;;;;11.85;79.36;98631.66;5013151;28;20053;-79
2022/12/22 10:17:52;;;;;;;20.23;13.90;;;;;;;11.89;78.91;98624.31;5012864;28;20058;-79
2022/12/22 10:20:24;;;;;;;22.73;16.10;;;;;;;11.94;78.56;98645.88;4995501;28;20054;-79
2022/12/22 10:22:58;;;;;;;21.73;14.90;;;;;;;11.99;78.32;98638.41;5013153;28;20050;-79
2022/12/22 10:25:31;;;;;;;21.65;14.98;;;;;;;12.04;78.06;98638.88;5012968;28;20070;-79
2022/12/22 10:28:22;;;;;;;22.17;15.07;;;;;;;12.10;78.22;98643.69;5012907;28;20057;-79
2022/12/22 10:30:49;;;;;;;19.33;13.80;;;;;;;12.12;78.14;98635.66;5013141;28;20105;-79
2022/12/22 10:33:18;;;;;;;17.17;13.57;;;;;;;12.11;77.66;98645.38;5012978;28;20571;-79
2022/12/22 10:36:11;;;;;;;20.38;14.35;;;;;;;12.07;76.27;98649.22;5012623;28;20058;-79
2022/12/22 10:39:02;;;;;;;18.55;13.57;;;;;;;12.08;76.32;98647.44;5010121;28;20054;-79
2022/12/22 10:41:34;;;;;;;19.70;14.35;;;;;;;12.08;77.11;98650.88;5012489;28;20440;-79
2022/12/22 10:44:07;;;;;;;21.55;15.18;;;;;;;12.06;77.04;98655.47;5011775;28;20068;-79
2022/12/22 10:46:47;;;;;;;18.42;13.70;;;;;;;12.02;76.64;98661.91;5011634;28;20058;-79
2022/12/22 10:49:25;;;;;;;20.00;13.93;;;;;;;12.04;77.13;98672.34;5012596;28;20120;-79
2022/12/22 10:52:16;;;;;;;22.27;14.55;;;;;;;12.03;77.11;98668.84;5012445;28;20065;-79
2022/12/22 10:54:48;;;;;;;18.75;13.48;;;;;;;12.10;78.95;98664.81;5007831;28;20504;-79
2022/12/22 10:57:15;;;;;;;20.15;15.13;;;;;;;12.15;79.14;98668.88;5012148;28;20054;-78
2022/12/22 10:59:59;;;;;;;21.02;14.65;;;;;;;12.15;77.79;98671.50;5012678;28;20056;-79
2022/12/22 11:02:38;;;;;;;18.58;14.35;;;;;;;12.22;77.86;98680.56;5012367;28;20057;-79
2022/12/22 11:05:06;;;;;;;19.75;14.27;;;;;;;12.29;78.35;98678.31;5012091;28;20064;-79
2022/12/22 11:07:43;;;;;;;19.77;13.35;;;;;;;12.28;78.02;98674.81;4994478;28;20085;-79
2022/12/22 11:10:18;;;;;;;19.48;13.40;;;;;;;12.30;77.19;98664.16;5012387;28;20053;-79
2022/12/22 11:13:06;;;;;;;18.92;13.40;;;;;;;12.32;78.42;98670.97;5012168;28;20460;-79
2022/12/22 11:15:57;;;;;;;18.17;12.73;;;;;;;12.37;78.14;98667.94;5011999;28;20475;-79
2022/12/22 11:18:32;;;;;;;15.57;11.85;;;;;;;12.52;80.76;98676.38;5012196;28;20143;-79
2022/12/22 11:21:11;;;;;;;17.60;12.15;;;;;;;12.72;81.88;98682.69;5013754;28;20523;-79
2022/12/22 11:23:45;;;;;;;16.08;11.95;;;;;;;13.00;83.51;98690.91;5010241;28;20061;-79
2022/12/22 11:26:29;;;;;;;16.92;12.57;;;;;;;13.21;79.43;98697.13;5019423;28;20053;-79
2022/12/22 11:29:18;;;;;;;13.52;11.15;;;;;;;13.43;80.49;98689.03;5031334;28;20069;-79
2022/12/22 11:31:47;;;;;;;12.05;9.93;;;;;;;13.58;77.01;98695.81;5031682;28;20053;-79
2022/12/22 11:34:45;;;;;;;12.68;10.35;;;;;;;13.59;74.00;98700.97;5031490;28;20069;-79
2022/12/22 11:37:33;;;;;;;14.13;10.38;;;;;;;13.60;74.38;98705.28;5031206;28;20467;-79
2022/12/22 11:40:27;;;;;;;16.23;9.45;;;;;;;13.60;72.61;98704.47;5031228;28;20057;-79
2022/12/22 11:43:27;;;;;;;13.60;9.45;;;;;;;13.61;72.58;98704.31;5031359;28;20058;-79
2022/12/22 11:46:05;;;;;;;13.80;9.55;;;;;;;13.64;73.26;98706.69;5031396;28;20116;-80
2022/12/22 11:48:48;;;;;;;11.02;8.27;;;;;;;13.67;76.59;98714.38;5012895;28;20061;-79
2022/12/22 11:51:42;;;;;;;11.23;7.72;;;;;;;13.70;73.95;98723.00;5031275;28;20108;-80
2022/12/22 11:54:22;;;;;;;10.73;7.18;;;;;;;13.85;75.67;98740.19;5031291;28;20077;-80
2022/12/22 11:57:24;;;;;;;14.07;9.15;;;;;;;14.13;76.33;98742.22;5011706;28;20054;-80
2022/12/22 12:00:07;;;;;;;11.50;8.40;;;;;;;14.58;80.01;98752.31;4978411;28;20109;-80
2022/12/22 12:03:06;;;;;;;14.45;9.35;;;;;;;15.09;78.59;98746.03;4991848;28;20061;-80
2022/12/22 12:06:05;;;;;;;14.63;9.18;;;;;;;15.72;75.60;98747.28;4991442;28;20052;-79
2022/12/22 12:08:55;;;;;;;13.68;9.82;;;;;;;16.28;72.48;98749.97;4957548;28;20520;-80
2022/12/22 12:11:41;;;;;;;14.13;9.38;;;;;;;16.82;73.36;98750.94;4991630;28;20062;-80
2022/12/22 12:14:30;;;;;;;13.13;8.32;;;;;;;17.33;72.48;98745.03;4991448;28;20121;-79
2022/12/22 12:16:59;;;;;;;13.65;8.27;;;;;;;17.82;73.67;98739.16;4991317;28;20137;-80
2022/12/22 12:19:44;;;;;;;11.20;7.22;;;;;;;18.22;63.78;98749.31;4991319;28;20054;-81
2022/12/22 12:22:42;;;;;;;7.50;5.95;;;;;;;18.60;64.44;98757.72;4991380;28;20129;-80
2022/12/22 12:25:31;;;;;;;7.50;5.30;;;;;;;18.96;67.63;98745.06;4991039;28;20054;-80
2022/12/22 12:28:34;;;;;;;11.32;6.40;;;;;;;19.07;61.22;98752.78;4990993;28;20566;-80
2022/12/22 12:31:07;;;;;;;11.95;5.47;;;;;;;19.12;59.63;98760.25;4991127;28;20404;-79
2022/12/22 12:33:48;;;;;;;10.60;6.80;;;;;;;19.01;60.12;98751.59;4991085;28;20505;-79
2022/12/22 12:36:23;;;;;;;10.80;6.43;;;;;;;18.80;57.29;98762.72;4974056;28;20090;-79
2022/12/22 12:39:01;;;;;;;11.45;7.40;;;;;;;18.59;58.86;98766.72;4990907;28;20081;-79
2022/12/22 12:42:02;;;;;;;13.40;8.18;;;;;;;18.31;58.68;98748.34;4990884;28;20110;-79
2022/12/22 12:44:35;;;;;;;16.15;8.70;;;;;;;18.15;58.08;98742.94;4990914;28;20125;-79
2022/12/22 12:47:22;;;;;;;14.90;8.25;;;;;;;17.90;59.05;98741.00;4989923;28;20054;-79
2022/12/22 12:50:32;;;;;;;11.93;7.68;;;;;;;17.72;57.84;98743.78;4990653;28;20065;-79
2022/12/22 12:53:08;;;;;;;11.82;7.07;;;;;;;17.66;61.12;98747.91;4991483;28;20527;-79
2022/12/22 12:55:37;;;;;;;13.00;7.03;;;;;;;17.65;61.90;98753.38;5015826;28;20665;-79
2022/12/22 12:58:09;;;;;;;12.82;7.13;;;;;;;17.63;62.54;98766.84;5018201;28;20066;-79
2022/12/22 13:00:35;;;;;;;11.80;7.65;;;;;;;17.60;62.58;98755.69;5012312;28;20053;-79
2022/12/22 13:03:24;;;;;;;13.88;8.05;;;;;;;17.44;58.50;98751.94;5019252;28;20049;-79
2022/12/22 13:06:45;;;;;;;11.27;7.35;;;;;;;17.26;57.41;98766.13;5034245;28;20057;-79
2022/12/22 13:09:21;;;;;;;14.05;8.10;;;;;;;17.08;58.89;98765.31;5034592;28;20053;-79
2022/12/22 13:12:37;;;;;;;11.80;7.07;;;;;;;16.77;57.27;98766.50;5027703;28;20810;-79
2022/12/22 13:15:23;;;;;;;14.95;7.50;;;;;;;16.59;62.03;98774.50;5034219;28;20061;-79
2022/12/22 13:17:49;;;;;;;11.93;7.05;;;;;;;16.32;61.38;98776.19;5016186;28;20057;-79
2022/12/22 13:20:24;;;;;;;13.88;7.55;;;;;;;16.01;57.37;98775.50;5032137;28;20053;-79
2022/12/22 13:22:53;;;;;;;13.50;7.05;;;;;;;15.73;60.89;98775.47;5013448;28;20073;-79
2022/12/22 13:25:20;;;;;;;11.95;7.43;;;;;;;15.47;62.37;98773.44;5013706;28;20050;-79
2022/12/22 13:27:49;;;;;;;12.38;7.00;;;;;;;15.22;62.55;98773.06;5013958;28;20120;-79
2022/12/22 13:30:19;;;;;;;14.02;7.97;;;;;;;14.95;61.78;98766.69;5014032;28;20060;-79
2022/12/22 13:32:48;;;;;;;13.82;7.88;;;;;;;14.71;62.03;98767.94;5014280;28;20053;-79
2022/12/22 13:35:21;;;;;;;13.50;8.43;;;;;;;14.54;64.71;98758.84;5013915;28;20053;-79
2022/12/22 13:37:57;;;;;;;13.48;8.20;;;;;;;14.36;64.84;98764.00;5013693;28;20133;-77
2022/12/22 13:40:27;;;;;;;14.30;8.57;;;;;;;14.21;64.61;98763.53;4420768;23;20517;-80
2022/12/22 13:43:03;;;;;;;13.27;8.40;;;;;;;14.07;64.19;98772.69;4994248;28;20070;-80
2022/12/22 13:45:41;;;;;;;12.88;8.00;;;;;;;13.88;59.59;98769.03;4976939;28;20066;-79
2022/12/22 13:48:31;;;;;;;12.00;8.27;;;;;;;13.73;61.39;98765.91;4994218;28;20066;-80
2022/12/22 13:51:08;;;;;;;14.07;7.70;;;;;;;13.66;65.14;98772.66;4977759;28;20875;-80
2022/12/22 13:53:41;;;;;;;12.55;7.50;;;;;;;13.59;64.68;98776.81;4977240;28;20064;-82
2022/12/22 13:56:44;;;;;;;14.57;7.77;;;;;;;13.55;63.89;98778.88;4993855;28;20098;-80
2022/12/22 13:59:27;;;;;;;12.95;7.60;;;;;;;13.52;63.25;98784.41;4994329;28;20624;-80
2022/12/22 14:02:15;;;;;;;14.77;8.27;;;;;;;13.50;63.50;98784.53;4994083;28;20062;-81
2022/12/22 14:04:45;;;;;;;14.10;8.52;;;;;;;13.53;66.92;98792.22;4994073;28;20054;-81
2022/12/22 14:07:19;;;;;;;13.10;8.63;;;;;;;13.53;66.40;98794.88;4977137;28;20094;-79
2022/12/22 14:09:48;;;;;;;14.02;7.80;;;;;;;13.52;66.74;98795.00;4976848;28;20050;-81
2022/12/22 14:12:25;;;;;;;13.13;8.10;;;;;;;13.46;63.42;98795.50;4993537;28;20121;-80
2022/12/22 14:14:55;;;;;;;12.95;8.23;;;;;;;13.45;65.38;98799.13;4993793;28;20062;-79
2022/12/22 14:17:39;;;;;;;16.60;9.40;;;;;;;13.39;66.72;98800.47;4993699;28;20076;-80
2022/12/22 14:20:35;;;;;;;14.43;8.02;;;;;;;13.31;64.22;98795.84;4993891;28;20502;-81
2022/12/22 14:23:31;;;;;;;13.90;7.97;;;;;;;13.31;65.40;98793.19;4993830;28;20105;-80
2022/12/22 14:26:00;;;;;;;12.75;8.32;;;;;;;13.28;66.70;98806.66;4971039;28;20141;-80
2022/12/22 14:28:42;;;;;;;11.55;8.05;;;;;;;13.16;63.34;98803.25;4991834;28;20412;-81
2022/12/22 14:31:12;;;;;;;14.05;8.82;;;;;;;13.06;64.14;98813.72;4987800;28;20124;-80
2022/12/22 14:33:51;;;;;;;16.45;8.85;;;;;;;12.89;62.54;98808.03;4993051;28;20141;-80
2022/12/22 14:36:25;;;;;;;13.40;8.45;;;;;;;12.73;62.79;98807.59;4991234;28;20055;-80
2022/12/22 14:38:54;;;;;;;13.75;8.50;;;;;;;12.59;65.15;98809.56;4993018;28;20056;-79
2022/12/22 14:41:42;;;;;;;15.93;9.10;;;;;;;12.42;65.64;98804.81;4993653;28;20137;-80
2022/12/22 14:44:21;;;;;;;12.88;8.32;;;;;;;12.18;63.35;98809.28;4993324;28;20054;-80
2022/12/22 14:47:18;;;;;;;14.43;8.43;;;;;;;12.03;62.96;98808.66;4992985;28;20053;-80
2022/12/22 14:50:00;;;;;;;13.00;8.20;;;;;;;11.93;64.55;98803.25;4975838;28;20137;-79
2022/12/22 14:52:49;;;;;;;15.38;8.30;;;;;;;11.83;64.46;98792.59;4993339;28;20058;-80
2022/12/22 14:55:38;;;;;;;12.50;7.85;;;;;;;11.70;63.40;98795.34;4993025;28;20065;-80
2022/12/22 14:58:15;;;;;;;18.25;8.30;;;;;;;11.62;64.38;98802.19;4993097;28;20073;-79
2022/12/22 15:00:47;;;;;;;14.55;7.55;;;;;;;11.52;66.10;98800.25;4975723;28;20050;-80
2022/12/22 15:03:35;;;;;;;20.20;8.13;;;;;;;11.38;64.52;98801.28;4975865;28;20069;-80
2022/12/22 15:06:24;;;;;;;13.70;7.75;;;;;;;11.28;64.61;98805.56;4992907;28;20058;-80
2022/12/22 15:08:52;;;;;;;14.23;7.78;;;;;;;11.24;67.87;98804.13;4975420;28;20591;-81
2022/12/22 15:11:21;;;;;;;15.77;7.93;;;;;;;11.14;67.90;98811.88;4975334;28;20064;-80
2022/12/22 15:13:50;;;;;;;16.15;8.57;;;;;;;11.06;68.31;98813.28;4992834;28;20068;-80
2022/12/22 15:16:19;;;;;;;14.48;8.63;;;;;;;10.99;68.54;98809.41;4972362;28;20138;-80
2022/12/22 15:18:52;;;;;;;18.35;9.15;;;;;;;10.93;68.99;98813.38;4982699;28;20051;-80
2022/12/22 15:21:19;;;;;;;17.77;8.85;;;;;;;10.89;68.82;98817.19;4997240;28;20141;-80
2022/12/22 15:23:46;;;;;;;18.15;9.18;;;;;;;10.83;68.96;98815.00;4991988;28;20081;-80
2022/12/22 15:26:13;;;;;;;17.25;9.68;;;;;;;10.77;69.13;98815.44;4991161;28;20564;-79
2022/12/22 15:28:40;;;;;;;16.83;9.27;;;;;;;10.72;68.94;98810.50;4991557;28;20058;-80